createdAt,value
2023-05-08T00:00:20.130Z,95603.47
2023-05-08T00:02:48.590Z,95604.16
2023-05-08T00:05:17.182Z,95594.59
2023-05-08T00:07:47.239Z,95606.41
2023-05-08T00:10:15.786Z,95597.84
2023-05-08T00:12:44.224Z,95595.38
2023-05-08T00:15:12.780Z,95600.53
2023-05-08T00:17:41.090Z,95597.06
2023-05-08T00:20:10.429Z,95590.44
2023-05-08T00:22:38.939Z,95590.06
2023-05-08T00:25:09.387Z,95596.22
2023-05-08T00:27:37.713Z,95596.91
2023-05-08T00:30:07.282Z,95599.53
2023-05-08T00:32:35.572Z,95598.81
2023-05-08T00:35:03.940Z,95594.06
2023-05-08T00:37:32.200Z,95593.69
2023-05-08T00:40:00.404Z,95589.75
2023-05-08T00:42:30.110Z,95592.69
2023-05-08T00:44:58.301Z,95587.44
2023-05-08T00:47:26.521Z,95589.13
2023-05-08T00:49:55.149Z,95584.31
2023-05-08T00:52:24.053Z,95597.09
2023-05-08T00:54:52.486Z,95598.56
2023-05-08T00:57:21.300Z,95596.03
2023-05-08T00:59:51.778Z,95593.91
2023-05-08T01:02:21.145Z,95599.50
2023-05-08T01:04:50.127Z,95584.69
2023-05-08T01:07:19.234Z,95601.09
2023-05-08T01:09:47.463Z,95595.13
2023-05-08T01:12:22.328Z,95604.13
2023-05-08T01:15:02.565Z,95597.56
2023-05-08T01:17:43.218Z,95590.84
2023-05-08T01:20:25.175Z,95600.41
2023-05-08T01:23:24.810Z,95584.00
2023-05-08T01:26:28.431Z,95589.19
2023-05-08T01:29:17.617Z,95584.84
2023-05-08T01:32:16.495Z,95592.47
2023-05-08T01:34:56.379Z,95591.59
2023-05-08T01:37:33.964Z,95584.38
2023-05-08T01:40:10.836Z,95587.44
2023-05-08T01:42:50.588Z,95587.97
2023-05-08T01:45:23.722Z,95585.75
2023-05-08T01:48:02.181Z,95589.31
2023-05-08T01:50:37.947Z,95585.25
2023-05-08T01:53:11.767Z,95586.97
2023-05-08T01:55:42.008Z,95576.94
2023-05-08T01:58:12.030Z,95529.19
2023-05-08T02:00:42.031Z,95583.09
2023-05-08T02:03:12.326Z,95530.47
2023-05-08T02:05:44.206Z,95580.34
2023-05-08T02:08:15.246Z,95589.47
2023-05-08T02:10:44.623Z,95578.56
2023-05-08T02:13:19.275Z,95583.53
2023-05-08T02:15:49.205Z,95589.88
2023-05-08T02:18:21.798Z,95587.66
2023-05-08T02:20:53.461Z,95569.78
2023-05-08T02:23:23.789Z,95577.06
2023-05-08T02:25:53.367Z,95582.41
2023-05-08T02:28:23.929Z,95580.66
2023-05-08T02:30:53.990Z,95585.84
2023-05-08T02:33:23.750Z,95588.88
2023-05-08T02:35:55.123Z,95580.81
2023-05-08T02:38:26.859Z,95575.38
2023-05-08T02:40:58.717Z,95580.53
2023-05-08T02:43:27.162Z,95584.75
2023-05-08T02:46:04.208Z,95553.63
2023-05-08T02:48:37.666Z,95586.66
2023-05-08T02:51:19.770Z,95583.69
2023-05-08T02:53:52.744Z,95580.09
2023-05-08T02:56:32.280Z,95572.66
2023-05-08T02:59:11.421Z,95539.41
2023-05-08T03:01:46.000Z,95581.03
2023-05-08T03:04:21.932Z,95580.44
2023-05-08T03:06:53.604Z,95584.72
2023-05-08T03:09:26.369Z,95587.09
2023-05-08T03:12:03.956Z,95589.25
2023-05-08T03:14:36.673Z,95570.00
2023-05-08T03:17:08.885Z,95592.63
2023-05-08T03:19:41.004Z,95600.25
2023-05-08T03:22:12.518Z,95589.72
2023-05-08T03:24:44.080Z,95596.38
2023-05-08T03:27:13.525Z,95583.47
2023-05-08T03:29:43.349Z,95595.69
2023-05-08T03:32:13.259Z,95598.09
2023-05-08T03:34:42.579Z,95594.88
2023-05-08T03:37:12.374Z,95602.34
2023-05-08T03:39:40.661Z,95592.84
2023-05-08T03:42:08.975Z,95611.78
2023-05-08T03:44:39.109Z,95602.06
2023-05-08T03:47:08.087Z,95616.97
2023-05-08T03:49:38.865Z,95616.69
2023-05-08T03:52:07.670Z,95616.78
2023-05-08T03:54:37.354Z,95623.31
2023-05-08T03:57:05.970Z,95602.84
2023-05-08T03:59:44.350Z,95620.44
2023-05-08T04:02:21.220Z,95617.50
2023-05-08T04:04:54.523Z,95607.50
2023-05-08T04:07:29.046Z,95612.72
2023-05-08T04:10:02.047Z,95589.31
2023-05-08T04:12:39.754Z,95611.41
2023-05-08T04:15:12.368Z,95613.75
2023-05-08T04:17:44.866Z,95611.28
2023-05-08T04:20:20.801Z,95602.66
2023-05-08T04:22:51.376Z,95615.28
2023-05-08T04:25:22.307Z,95598.19
2023-05-08T04:27:52.538Z,95619.50
2023-05-08T04:30:21.992Z,95622.56
2023-05-08T04:32:51.377Z,95615.63
2023-05-08T04:35:19.700Z,95623.13
2023-05-08T04:37:48.977Z,95620.38
2023-05-08T04:40:17.308Z,95616.72
2023-05-08T04:42:47.845Z,95627.03
2023-05-08T04:45:16.614Z,95628.31
2023-05-08T04:47:44.984Z,95620.38
2023-05-08T04:50:13.453Z,95621.38
2023-05-08T04:52:41.687Z,95625.34
2023-05-08T04:55:11.365Z,95626.56
2023-05-08T04:57:39.911Z,95561.47
2023-05-08T05:00:10.988Z,95623.06
2023-05-08T05:02:39.486Z,95614.66
2023-05-08T05:05:08.998Z,95576.75
2023-05-08T05:07:37.286Z,95498.16
2023-05-08T05:10:06.039Z,95613.38
2023-05-08T05:12:36.247Z,95551.75
2023-05-08T05:15:04.838Z,95616.59
2023-05-08T05:17:35.463Z,95571.28
2023-05-08T05:20:04.040Z,95614.16
2023-05-08T05:22:34.289Z,95606.31
2023-05-08T05:25:02.660Z,95611.41
2023-05-08T05:27:31.234Z,95605.69
2023-05-08T05:30:00.204Z,95612.47
2023-05-08T05:32:28.485Z,95606.97
2023-05-08T05:34:58.365Z,95609.59
2023-05-08T05:37:26.595Z,95607.72
2023-05-08T05:39:54.874Z,95597.78
2023-05-08T05:42:23.417Z,95600.38
2023-05-08T05:44:51.705Z,95590.34
2023-05-08T05:47:20.048Z,95602.25
2023-05-08T05:49:48.288Z,95594.31
2023-05-08T05:52:17.899Z,95595.50
2023-05-08T05:54:46.887Z,95590.91
2023-05-08T05:57:15.130Z,95581.53
2023-05-08T05:59:45.880Z,95586.56
2023-05-08T06:02:18.963Z,95586.50
2023-05-08T06:04:47.444Z,95575.19
2023-05-08T06:07:17.213Z,95574.16
2023-05-08T06:09:45.698Z,95569.66
2023-05-08T06:12:13.944Z,95564.66
2023-05-08T06:14:42.171Z,95576.69
2023-05-08T06:17:10.676Z,95574.00
2023-05-08T06:19:39.007Z,95573.50
2023-05-08T06:22:07.453Z,95566.59
2023-05-08T06:24:37.130Z,95566.59
2023-05-08T06:27:05.617Z,95565.00
2023-05-08T06:29:34.164Z,95552.19
2023-05-08T06:32:02.420Z,95553.56
2023-05-08T06:34:31.640Z,95558.81
2023-05-08T06:36:59.924Z,95553.50
2023-05-08T06:39:28.198Z,95553.78
2023-05-08T06:41:58.082Z,95552.41
2023-05-08T06:44:26.525Z,95530.78
2023-05-08T06:46:55.464Z,95507.59
2023-05-08T06:49:24.259Z,95544.34
2023-05-08T06:51:52.595Z,95533.78
2023-05-08T06:54:20.879Z,95541.53
2023-05-08T06:56:49.277Z,95529.47
2023-05-08T06:59:18.975Z,95526.09
2023-05-08T07:01:47.318Z,95494.28
2023-05-08T07:04:15.693Z,95523.91
2023-05-08T07:06:43.926Z,95521.47
2023-05-08T07:09:13.079Z,95516.03
2023-05-08T07:11:41.489Z,95484.19
2023-05-08T07:14:09.802Z,95451.47
2023-05-08T07:16:39.548Z,95514.31
2023-05-08T07:19:07.917Z,95510.81
2023-05-08T07:21:36.148Z,95521.78
2023-05-08T07:24:05.014Z,95515.72
2023-05-08T07:26:33.269Z,95486.50
2023-05-08T07:29:01.514Z,95504.78
2023-05-08T07:31:31.084Z,95497.41
2023-05-08T07:34:01.097Z,95495.94
2023-05-08T07:36:29.359Z,95498.56
2023-05-08T07:38:57.774Z,95499.47
2023-05-08T07:41:26.750Z,95497.38
2023-05-08T07:43:55.018Z,95494.88
2023-05-08T07:46:23.516Z,95496.38
2023-05-08T07:48:52.272Z,95458.94
2023-05-08T07:51:21.979Z,95490.81
2023-05-08T07:53:51.271Z,95482.38
2023-05-08T07:56:19.696Z,95484.09
2023-05-08T07:58:48.012Z,95440.91
2023-05-08T08:01:18.278Z,95469.00
2023-05-08T08:03:47.126Z,95475.88
2023-05-08T08:06:15.819Z,95473.06
2023-05-08T08:08:45.658Z,95484.97
2023-05-08T08:11:13.873Z,95441.72
2023-05-08T08:13:42.111Z,95469.91
2023-05-08T08:16:10.428Z,95463.47
2023-05-08T08:18:38.735Z,95460.50
2023-05-08T08:21:07.883Z,95449.56
2023-05-08T08:23:36.254Z,95451.38
2023-05-08T08:26:06.108Z,95419.22
2023-05-08T08:28:34.527Z,95438.41
2023-05-08T08:31:02.966Z,95450.16
2023-05-08T08:33:31.371Z,95443.47
2023-05-08T08:35:59.695Z,95434.81
2023-05-08T08:38:28.103Z,95424.41
2023-05-08T08:40:56.385Z,95399.78
2023-05-08T08:43:26.774Z,95408.88
2023-05-08T08:45:55.173Z,95380.91
2023-05-08T08:48:29.498Z,95414.50
2023-05-08T08:51:04.022Z,95402.63
2023-05-08T08:53:36.991Z,95419.44
2023-05-08T08:56:09.741Z,95419.78
2023-05-08T08:58:43.588Z,95416.72
2023-05-08T09:01:17.710Z,95336.19
2023-05-08T09:03:47.682Z,95390.97
2023-05-08T09:06:18.550Z,95397.22
2023-05-08T09:08:47.537Z,95390.91
2023-05-08T09:11:15.920Z,95383.91
2023-05-08T09:13:45.942Z,95385.69
2023-05-08T09:16:14.368Z,95376.72
2023-05-08T09:18:42.752Z,95379.41
2023-05-08T09:21:11.119Z,95373.94
2023-05-08T09:23:55.603Z,95379.91
2023-05-08T09:26:32.622Z,95371.75
2023-05-08T09:29:22.236Z,95361.19
2023-05-08T09:31:51.922Z,95357.97
2023-05-08T09:34:28.630Z,95357.53
2023-05-08T09:36:57.492Z,95354.81
2023-05-08T09:39:26.842Z,95351.47
2023-05-08T09:42:01.922Z,95344.38
2023-05-08T09:44:45.658Z,95352.09
2023-05-08T09:47:15.007Z,95343.09
2023-05-08T09:49:58.017Z,95346.56
2023-05-08T09:52:26.914Z,95339.47
2023-05-08T09:55:00.058Z,95294.72
2023-05-08T09:57:29.007Z,95342.44
2023-05-08T10:00:06.237Z,95338.69
2023-05-08T10:02:34.750Z,95330.91
2023-05-08T10:05:03.162Z,95325.91
2023-05-08T10:07:35.936Z,95330.84
2023-05-08T10:10:06.112Z,95330.78
2023-05-08T10:12:35.281Z,95329.22
2023-05-08T10:15:05.631Z,95316.47
2023-05-08T10:17:44.189Z,95325.41
2023-05-08T10:20:15.532Z,95312.63
2023-05-08T10:22:45.232Z,95301.31
2023-05-08T10:25:18.308Z,95318.06
2023-05-08T10:27:53.003Z,95307.00
2023-05-08T10:30:27.095Z,95297.56
2023-05-08T10:32:58.987Z,95300.81
2023-05-08T10:35:28.675Z,95281.75
2023-05-08T10:37:57.599Z,95280.84
2023-05-08T10:40:25.932Z,95268.19
2023-05-08T10:42:54.178Z,95278.22
2023-05-08T10:45:25.121Z,95278.28
2023-05-08T10:48:01.001Z,95268.78
2023-05-08T10:50:47.689Z,95270.78
2023-05-08T10:53:22.130Z,95266.00
2023-05-08T10:55:53.226Z,95262.06
2023-05-08T10:58:32.240Z,95252.06
2023-05-08T11:01:18.442Z,95247.13
2023-05-08T11:03:55.558Z,95243.91
2023-05-08T11:06:44.700Z,95238.66
2023-05-08T11:09:21.165Z,95229.50
2023-05-08T11:11:58.115Z,95226.59
2023-05-08T11:14:28.381Z,95220.03
2023-05-08T11:17:11.357Z,95218.00
2023-05-08T11:19:39.903Z,95154.94
2023-05-08T11:22:16.464Z,95214.66
2023-05-08T11:25:00.902Z,95183.09
2023-05-08T11:27:41.309Z,95212.28
2023-05-08T11:30:36.347Z,95206.41
2023-05-08T11:33:16.408Z,95195.97
2023-05-08T11:35:53.825Z,95209.59
2023-05-08T11:38:27.272Z,95199.09
2023-05-08T11:41:02.990Z,95198.31
2023-05-08T11:44:09.476Z,95215.41
2023-05-08T11:46:42.197Z,95241.63
2023-05-08T11:49:16.995Z,95186.38
2023-05-08T11:51:47.205Z,95256.69
2023-05-08T11:54:18.086Z,95265.72
2023-05-08T11:56:48.414Z,95301.34
2023-05-08T11:59:17.681Z,95253.47
2023-05-08T12:01:50.836Z,95297.66
2023-05-08T12:04:26.463Z,95316.38
2023-05-08T12:07:00.093Z,95340.00
2023-05-08T12:09:29.050Z,95354.22
2023-05-08T12:12:00.318Z,95358.44
2023-05-08T12:14:28.749Z,95339.19
2023-05-08T12:16:57.111Z,95324.69
2023-05-08T12:19:26.800Z,95337.94
2023-05-08T12:21:58.645Z,95339.06
2023-05-08T12:24:27.042Z,95320.84
2023-05-08T12:26:56.775Z,95325.16
2023-05-08T12:29:28.546Z,95279.50
2023-05-08T12:31:57.430Z,95336.09
2023-05-08T12:34:27.746Z,95340.38
2023-05-08T12:37:05.571Z,95311.00
2023-05-08T12:39:38.027Z,95307.16
2023-05-08T12:42:06.497Z,95325.19
2023-05-08T12:44:34.777Z,95328.06
2023-05-08T12:47:07.250Z,95317.63
2023-05-08T12:49:38.716Z,95312.94
2023-05-08T12:52:10.459Z,95290.88
2023-05-08T12:54:41.102Z,95309.69
2023-05-08T12:57:13.412Z,95273.38
2023-05-08T12:59:42.556Z,95312.22
2023-05-08T13:02:15.712Z,95307.75
2023-05-08T13:04:46.102Z,95315.22
2023-05-08T13:07:14.574Z,95312.28
2023-05-08T13:09:57.877Z,95310.16
2023-05-08T13:12:26.266Z,95256.66
2023-05-08T13:14:54.684Z,95296.75
2023-05-08T13:17:23.042Z,95301.16
2023-05-08T13:19:52.867Z,95312.66
2023-05-08T13:22:23.328Z,95310.72
2023-05-08T13:24:51.620Z,95257.94
2023-05-08T13:27:20.073Z,95301.34
2023-05-08T13:29:48.489Z,95302.56
2023-05-08T13:32:16.773Z,95307.47
2023-05-08T13:34:50.415Z,95301.78
2023-05-08T13:37:21.467Z,95302.66
2023-05-08T13:39:49.766Z,95293.69
2023-05-08T13:42:18.004Z,95296.50
2023-05-08T13:44:46.290Z,95289.47
2023-05-08T13:47:14.722Z,95277.63
2023-05-08T13:49:44.254Z,95274.31
2023-05-08T13:52:12.561Z,95283.13
2023-05-08T13:54:42.250Z,95285.94
2023-05-08T13:57:10.917Z,95296.88
2023-05-08T13:59:39.331Z,95296.44
2023-05-08T14:02:08.119Z,95301.16
2023-05-08T14:04:36.423Z,95299.38
2023-05-08T14:07:04.701Z,95268.38
2023-05-08T14:09:32.960Z,95300.50
2023-05-08T14:12:02.788Z,95126.16
2023-05-08T14:14:32.411Z,95300.88
2023-05-08T14:17:20.456Z,95191.69
2023-05-08T14:19:48.743Z,95298.63
2023-05-08T14:22:16.997Z,95310.78
2023-05-08T14:24:45.590Z,95304.94
2023-05-08T14:27:15.341Z,95305.59
2023-05-08T14:29:43.609Z,95299.66
2023-05-08T14:32:12.016Z,95293.97
2023-05-08T14:34:40.363Z,95284.31
2023-05-08T14:37:08.577Z,95285.75
2023-05-08T14:39:36.888Z,95288.38
2023-05-08T14:42:22.118Z,95301.19
2023-05-08T14:44:52.498Z,95291.75
2023-05-08T14:47:21.141Z,95225.81
2023-05-08T14:49:49.506Z,95301.28
2023-05-08T14:52:17.935Z,95299.66
2023-05-08T14:54:48.029Z,95304.63
2023-05-08T14:57:16.399Z,95312.84
2023-05-08T14:59:54.096Z,95307.63
2023-05-08T15:02:25.021Z,95317.44
2023-05-08T15:04:54.292Z,95308.13
2023-05-08T15:07:22.525Z,95310.28
2023-05-08T15:09:50.979Z,95304.19
2023-05-08T15:12:19.337Z,95293.22
2023-05-08T15:14:47.627Z,95297.31
2023-05-08T15:17:16.172Z,95300.31
2023-05-08T15:19:46.071Z,95298.94
2023-05-08T15:22:14.377Z,95311.09
2023-05-08T15:24:42.776Z,95302.84
2023-05-08T15:27:11.921Z,95256.25
2023-05-08T15:29:40.927Z,95294.81
2023-05-08T15:32:09.390Z,95295.91
2023-05-08T15:34:39.940Z,95305.28
2023-05-08T15:37:10.381Z,95304.38
2023-05-08T15:39:38.680Z,95299.88
2023-05-08T15:42:07.455Z,95218.22
2023-05-08T15:47:07.339Z,95306.28
2023-05-08T15:49:35.624Z,95299.34
2023-05-08T15:52:04.040Z,95295.22
2023-05-08T15:54:33.693Z,95292.72
2023-05-08T15:57:02.021Z,95304.31
2023-05-08T15:59:30.346Z,95287.13
2023-05-08T16:01:58.690Z,95274.41
2023-05-08T16:04:27.016Z,95286.84
2023-05-08T16:06:56.058Z,95296.28
2023-05-08T16:09:24.467Z,95299.53
2023-05-08T16:11:54.161Z,95293.72
2023-05-08T16:14:22.416Z,95298.63
2023-05-08T16:16:50.763Z,95301.84
2023-05-08T16:19:19.104Z,95302.00
2023-05-08T16:21:47.909Z,95311.00
2023-05-08T16:24:16.456Z,95316.94
2023-05-08T16:26:44.663Z,95282.94
2023-05-08T16:29:14.358Z,95331.63
2023-05-08T16:31:42.695Z,95339.81
2023-05-08T16:34:10.957Z,95310.16
2023-05-08T16:36:39.400Z,95341.34
2023-05-08T16:39:08.454Z,95321.44
2023-05-08T16:41:36.832Z,95335.00
2023-05-08T16:44:05.251Z,95350.19
2023-05-08T16:46:34.999Z,95358.59
2023-05-08T16:49:03.320Z,95356.13
2023-05-08T16:51:32.499Z,95360.91
2023-05-08T16:54:00.814Z,95371.63
2023-05-08T16:56:29.088Z,95375.41
2023-05-08T16:58:57.335Z,95389.47
2023-05-08T17:01:25.681Z,95379.78
2023-05-08T17:03:55.486Z,95391.50
2023-05-08T17:06:23.810Z,95365.72
2023-05-08T17:08:52.114Z,95390.53
2023-05-08T17:11:20.377Z,95400.19
2023-05-08T17:13:48.764Z,95411.38
2023-05-08T17:16:19.668Z,95410.91
2023-05-08T17:18:48.760Z,95398.16
2023-05-08T17:21:18.548Z,95418.03
2023-05-08T17:23:46.859Z,95417.13
2023-05-08T17:26:15.291Z,95420.34
2023-05-08T17:28:44.600Z,95426.34
2023-05-08T17:31:13.234Z,95432.25
2023-05-08T17:33:41.640Z,95435.59
2023-05-08T17:36:10.730Z,95437.03
2023-05-08T17:38:45.907Z,95423.44
2023-05-08T17:41:14.395Z,95427.75
2023-05-08T17:43:42.727Z,95427.06
2023-05-08T17:46:11.099Z,95435.00
2023-05-08T17:48:39.499Z,95428.00
2023-05-08T17:51:07.822Z,95422.34
2023-05-08T17:53:36.218Z,95432.16
2023-05-08T17:56:06.357Z,95429.03
2023-05-08T17:58:34.620Z,95422.66
2023-05-08T18:01:02.976Z,95431.81
2023-05-08T18:03:32.033Z,95436.34
2023-05-08T18:06:00.292Z,95438.38
2023-05-08T18:08:28.534Z,95443.56
2023-05-08T18:10:56.830Z,95440.91
2023-05-08T18:13:26.835Z,95401.47
2023-05-08T18:15:55.162Z,95445.50
2023-05-08T18:18:23.447Z,95440.63
2023-05-08T18:20:51.736Z,95449.22
2023-05-08T18:23:22.239Z,95455.34
2023-05-08T18:25:50.706Z,95459.47
2023-05-08T18:28:19.078Z,95461.22
2023-05-08T18:30:48.733Z,95457.59
2023-05-08T18:33:17.254Z,95445.41
2023-05-08T18:35:45.625Z,95477.50
2023-05-08T18:38:13.917Z,95474.94
2023-05-08T18:40:42.268Z,95489.19
2023-05-08T18:43:10.557Z,95491.41
2023-05-08T18:45:40.645Z,95498.19
2023-05-08T18:48:11.537Z,95459.97
2023-05-08T18:50:40.080Z,95501.31
2023-05-08T18:53:09.978Z,95504.03
2023-05-08T18:55:38.329Z,95489.03
2023-05-08T18:58:06.626Z,95506.69
2023-05-08T19:00:34.877Z,95509.53
2023-05-08T19:03:03.201Z,95499.59
2023-05-08T19:05:33.016Z,95505.78
2023-05-08T19:08:01.358Z,95507.81
2023-05-08T19:10:29.713Z,95513.97
2023-05-08T19:12:58.640Z,95513.97
2023-05-08T19:15:36.763Z,95504.03
2023-05-08T19:18:05.328Z,95501.66
2023-05-08T19:20:35.076Z,95506.41
2023-05-08T19:23:03.750Z,95510.50
2023-05-08T19:25:32.048Z,95503.53
2023-05-08T19:28:00.457Z,95507.94
2023-05-08T19:30:28.889Z,95502.84
2023-05-08T19:32:57.210Z,95514.88
2023-05-08T19:35:25.589Z,95504.59
2023-05-08T19:37:55.370Z,95509.97
2023-05-08T19:40:23.735Z,95509.47
2023-05-08T19:42:51.970Z,95496.94
2023-05-08T19:45:20.421Z,95509.28
2023-05-08T19:47:49.442Z,95509.88
2023-05-08T19:50:19.035Z,95505.66
2023-05-08T19:52:48.842Z,95493.94
2023-05-08T19:55:19.346Z,95432.34
2023-05-08T19:57:47.587Z,95493.84
2023-05-08T20:00:16.407Z,95500.91
2023-05-08T20:02:44.728Z,95495.94
2023-05-08T20:05:31.331Z,95499.69
2023-05-08T20:07:59.684Z,95499.97
2023-05-08T20:10:29.454Z,95493.59
2023-05-08T20:12:57.749Z,95489.34
2023-05-08T20:15:26.239Z,95487.50
2023-05-08T20:17:55.586Z,95488.16
2023-05-08T20:20:24.418Z,95483.09
2023-05-08T20:22:52.621Z,95479.03
2023-05-08T20:25:21.080Z,95475.41
2023-05-08T20:27:50.892Z,95455.19
2023-05-08T20:30:19.825Z,95485.56
2023-05-08T20:32:49.281Z,95480.88
2023-05-08T20:35:17.599Z,95479.59
2023-05-08T20:37:46.633Z,95492.78
2023-05-08T20:40:15.647Z,95479.38
2023-05-08T20:42:44.116Z,95485.41
2023-05-08T20:45:14.033Z,95489.72
2023-05-08T20:47:42.382Z,95494.66
2023-05-08T20:50:10.991Z,95494.19
2023-05-08T20:52:41.294Z,95448.22
2023-05-08T20:55:11.579Z,95486.91
2023-05-08T20:57:39.975Z,95481.75
2023-05-08T21:00:09.587Z,95482.25
2023-05-08T21:02:41.363Z,95490.94
2023-05-08T21:05:10.228Z,95496.03
2023-05-08T21:07:39.166Z,95488.56
2023-05-08T21:10:08.318Z,95488.31
2023-05-08T21:12:36.722Z,95489.03
2023-05-08T21:15:05.394Z,95488.50
2023-05-08T21:17:33.744Z,95453.59
2023-05-08T21:20:03.496Z,95490.00
2023-05-08T21:22:31.836Z,95487.69
2023-05-08T21:25:00.203Z,95427.59
2023-05-08T21:27:28.547Z,95492.66
2023-05-08T21:29:56.896Z,95495.16
2023-05-08T21:32:25.180Z,95492.63
2023-05-08T21:34:53.498Z,95482.78
2023-05-08T21:37:23.707Z,95477.28
2023-05-08T21:39:51.974Z,95470.69
2023-05-08T21:42:20.349Z,95496.78
2023-05-08T21:44:48.650Z,95491.94
2023-05-08T21:47:16.931Z,95495.81
2023-05-08T21:49:45.236Z,95500.13
2023-05-08T21:52:14.493Z,95493.50
2023-05-08T21:54:44.199Z,95485.22
2023-05-08T21:57:12.542Z,95486.97
2023-05-08T21:59:40.709Z,95481.88
2023-05-08T22:02:09.002Z,95486.38
2023-05-08T22:04:37.397Z,95465.16
2023-05-08T22:07:05.639Z,95483.75
2023-05-08T22:09:33.898Z,95485.34
2023-05-08T22:12:03.607Z,95486.94
2023-05-08T22:14:31.899Z,95482.66
2023-05-08T22:17:00.286Z,95485.22
2023-05-08T22:19:28.643Z,95488.25
2023-05-08T22:21:56.871Z,95483.56
2023-05-08T22:24:25.668Z,95491.97
2023-05-08T22:26:54.014Z,95386.44
2023-05-08T22:29:23.636Z,95484.22
2023-05-08T22:31:51.900Z,95476.47
2023-05-08T22:34:20.236Z,95472.03
2023-05-08T22:36:48.466Z,95474.94
2023-05-08T22:39:16.695Z,95477.06
2023-05-08T22:41:45.123Z,95443.97
2023-05-08T22:44:13.381Z,95469.25
2023-05-08T22:46:43.343Z,95469.75
2023-05-08T22:49:11.755Z,95472.69
2023-05-08T22:51:40.319Z,95473.06
2023-05-08T22:54:08.652Z,95381.50
2023-05-08T22:56:38.306Z,95472.03
2023-05-08T22:59:07.291Z,95462.59
2023-05-08T23:01:35.736Z,95460.41
2023-05-08T23:04:05.928Z,95461.00
2023-05-08T23:06:34.379Z,95463.38
2023-05-08T23:09:03.312Z,95394.25
2023-05-08T23:11:31.799Z,95464.31
2023-05-08T23:14:00.071Z,95462.06
2023-05-08T23:16:28.363Z,95457.56
2023-05-08T23:18:56.624Z,95419.72
2023-05-08T23:21:26.228Z,95447.94
2023-05-08T23:23:54.684Z,95463.03
2023-05-08T23:26:23.111Z,95438.50
2023-05-08T23:28:51.332Z,95462.91
2023-05-08T23:31:19.834Z,95402.75
2023-05-08T23:33:48.112Z,95444.41
2023-05-08T23:36:16.868Z,95438.00
2023-05-08T23:38:46.542Z,95448.78
2023-05-08T23:41:15.080Z,95441.66
2023-05-08T23:43:44.448Z,95443.38
2023-05-08T23:46:12.780Z,95453.66
2023-05-08T23:48:40.996Z,95445.22
2023-05-08T23:51:09.315Z,95436.38
2023-05-08T23:53:37.627Z,95437.16
2023-05-08T23:56:07.913Z,95419.84
2023-05-08T23:58:36.502Z,95416.47
